createdAt,value
2018-03-07T11:15:05.519Z,71.27
2018-03-07T11:17:34.891Z,73.45
2018-03-07T11:20:03.504Z,74.15
2018-03-07T11:22:32.345Z,71.81
2018-03-07T11:25:00.781Z,73.93
2018-03-07T11:27:29.176Z,73.32
2018-03-07T11:29:58.423Z,72.21
2018-03-07T11:32:26.896Z,73.12
2018-03-07T11:34:55.834Z,72.83
2018-03-07T11:37:24.239Z,73.90
2018-03-07T11:39:53.425Z,74.25
2018-03-07T11:42:22.600Z,73.95
2018-03-07T11:44:51.006Z,72.99
2018-03-07T11:47:20.247Z,74.29
2018-03-07T11:49:48.663Z,75.33
2018-03-07T11:52:17.080Z,74.63
2018-03-07T11:54:46.210Z,75.40
2018-03-07T11:57:14.633Z,74.45
2018-03-07T11:59:43.045Z,75.39
2018-03-07T12:02:11.452Z,73.93
2018-03-07T12:04:40.713Z,73.45
2018-03-07T12:07:09.848Z,72.72
2018-03-07T12:09:38.293Z,73.27
2018-03-07T12:12:07.439Z,74.06
2018-03-07T12:14:35.889Z,75.83
2018-03-07T12:17:05.036Z,75.18
2018-03-07T12:19:33.444Z,73.95
2018-03-07T12:22:01.808Z,72.75
2018-03-07T12:24:30.215Z,71.27
2018-03-07T12:26:59.386Z,70.37
2018-03-07T12:29:27.765Z,70.33
2018-03-07T12:31:56.206Z,69.89
2018-03-07T12:34:24.629Z,70.04
2018-03-07T12:36:53.004Z,70.53
2018-03-07T12:39:21.464Z,68.32
2018-03-07T12:41:49.902Z,68.19
2018-03-07T12:44:18.255Z,66.94
2018-03-07T12:46:46.825Z,67.73
2018-03-07T12:49:15.237Z,67.33
2018-03-07T12:51:43.654Z,66.33
2018-03-07T12:54:12.087Z,65.26
2018-03-07T12:56:40.503Z,64.86
2018-03-07T12:59:09.671Z,64.79
2018-03-07T13:01:38.099Z,65.54
2018-03-07T13:04:06.656Z,64.99
2018-03-07T13:06:35.955Z,64.20
2018-03-07T13:09:04.747Z,64.43
2018-03-07T13:11:33.824Z,64.74
2018-03-07T13:14:02.203Z,64.85
2018-03-07T13:16:30.816Z,64.98
2018-03-07T13:18:59.184Z,64.96
2018-03-07T13:21:27.574Z,64.64
2018-03-07T13:23:56.094Z,65.51
2018-03-07T13:26:24.552Z,64.66
2018-03-07T13:28:53.737Z,63.54
2018-03-07T13:31:22.114Z,63.40
2018-03-07T13:33:50.482Z,62.66
2018-03-07T13:36:18.915Z,63.69
2018-03-07T13:38:47.317Z,63.66
2018-03-07T13:41:15.821Z,63.59
2018-03-07T13:43:44.312Z,62.78
2018-03-07T13:46:12.748Z,63.86
2018-03-07T13:48:41.127Z,63.79
2018-03-07T13:51:09.682Z,64.05
2018-03-07T13:53:38.040Z,64.37
2018-03-07T13:56:06.500Z,64.96
2018-03-07T13:58:34.914Z,65.08
2018-03-07T14:01:03.795Z,64.55
2018-03-07T14:03:32.183Z,64.94
2018-03-07T14:06:01.554Z,64.12
2018-03-07T14:08:30.069Z,64.45
2018-03-07T14:10:58.442Z,65.73
2018-03-07T14:13:27.082Z,65.27
2018-03-07T14:15:56.440Z,63.89
2018-03-07T14:18:24.889Z,64.19
2018-03-07T14:20:53.276Z,63.52
2018-03-07T14:23:21.659Z,63.95
2018-03-07T14:25:50.022Z,64.21
2018-03-07T14:28:18.586Z,64.78
2018-03-07T14:30:47.949Z,63.11
2018-03-07T14:33:16.339Z,64.19
2018-03-07T14:35:44.751Z,63.96
2018-03-07T14:38:13.165Z,62.95
2018-03-07T14:40:41.565Z,63.28
2018-03-07T14:43:09.955Z,63.05
2018-03-07T14:45:38.347Z,62.95
2018-03-07T14:48:06.752Z,63.34
2018-03-07T14:50:36.042Z,64.44
2018-03-07T14:53:05.206Z,63.55
2018-03-07T14:55:33.588Z,63.95
2018-03-07T14:58:02.072Z,65.23
2018-03-07T15:00:30.500Z,65.49
2018-03-07T15:02:59.619Z,65.33
2018-03-07T15:05:28.002Z,64.61
2018-03-07T15:07:56.591Z,65.21
2018-03-07T15:10:24.983Z,64.77
2018-03-07T15:12:53.367Z,64.92
2018-03-07T15:15:21.876Z,64.41
2018-03-07T15:17:50.352Z,63.26
2018-03-07T15:20:18.779Z,64.18
2018-03-07T15:22:48.008Z,63.45
2018-03-07T15:25:16.447Z,62.86
2018-03-07T15:27:44.859Z,62.69
2018-03-07T15:30:13.249Z,62.90
2018-03-07T15:32:41.671Z,62.25
2018-03-07T15:35:10.207Z,62.82
2018-03-07T15:37:39.379Z,63.26
2018-03-07T15:40:08.527Z,63.19
2018-03-07T15:42:36.936Z,63.79
2018-03-07T15:45:05.841Z,63.53
2018-03-07T15:47:35.045Z,63.27
2018-03-07T15:50:04.549Z,63.18
2018-03-07T15:52:33.879Z,63.46
2018-03-07T15:55:02.251Z,64.58
2018-03-07T15:57:30.649Z,63.57
2018-03-07T15:59:59.039Z,63.87
2018-03-07T16:02:27.427Z,63.90
2018-03-07T16:04:56.864Z,63.62
2018-03-07T16:07:25.292Z,63.79
2018-03-07T16:09:53.702Z,62.84
2018-03-07T16:12:22.272Z,63.67
2018-03-07T16:14:50.732Z,64.23
2018-03-07T16:17:19.114Z,63.26
2018-03-07T16:19:47.524Z,62.99
2018-03-07T16:22:15.912Z,63.83
2018-03-07T16:24:44.300Z,64.22
2018-03-07T16:27:12.703Z,63.98
2018-03-07T16:29:41.863Z,63.75
2018-03-07T16:32:10.596Z,64.24
2018-03-07T16:34:39.842Z,63.71
2018-03-07T16:37:08.268Z,64.06
2018-03-07T16:39:36.640Z,63.68
2018-03-07T16:42:05.020Z,63.69
2018-03-07T16:44:33.432Z,64.65
2018-03-07T16:47:02.781Z,64.21
2018-03-07T16:49:31.211Z,65.00
2018-03-07T16:52:00.351Z,64.00
2018-03-07T16:54:28.744Z,64.52
2018-03-07T16:56:57.118Z,65.02
2018-03-07T16:59:27.859Z,64.99
2018-03-07T17:01:56.259Z,64.69
2018-03-07T17:04:24.653Z,65.47
2018-03-07T17:06:53.064Z,65.06
2018-03-07T17:09:22.224Z,65.23
2018-03-07T17:11:50.784Z,65.74
2018-03-07T17:14:19.282Z,66.20
2018-03-07T17:16:47.838Z,67.13
2018-03-07T17:19:16.339Z,68.26
2018-03-07T17:21:44.756Z,67.84
2018-03-07T17:24:13.180Z,68.36
2018-03-07T17:26:41.607Z,68.64
2018-03-07T17:29:09.988Z,69.43
2018-03-07T17:31:38.347Z,68.70
2018-03-07T17:34:06.733Z,69.04
2018-03-07T17:36:35.317Z,68.96
2018-03-07T17:39:03.699Z,68.59
2018-03-07T17:41:32.175Z,68.96
2018-03-07T17:44:00.573Z,69.33
2018-03-07T17:46:28.961Z,71.42
2018-03-07T17:48:57.441Z,74.47
2018-03-07T17:51:26.773Z,75.56
2018-03-07T17:53:56.147Z,76.27
2018-03-07T17:56:24.572Z,76.74
2018-03-07T17:58:53.793Z,79.03
2018-03-07T18:01:22.234Z,79.31
2018-03-07T18:03:50.780Z,80.64
2018-03-07T18:06:19.246Z,80.74
2018-03-07T18:08:47.663Z,80.89
2018-03-07T18:11:16.083Z,80.45
2018-03-07T18:13:45.257Z,80.40
2018-03-07T18:16:13.617Z,81.50
2018-03-07T18:18:42.014Z,81.66
2018-03-07T18:21:10.563Z,81.05
2018-03-07T18:23:52.325Z,81.46
2018-03-07T18:26:22.782Z,81.32
2018-03-07T18:28:51.184Z,79.72
2018-03-07T18:31:19.809Z,80.38
2018-03-07T18:33:48.286Z,79.26
2018-03-07T18:36:16.698Z,78.59
2018-03-07T18:38:45.071Z,79.17
2018-03-07T18:41:13.524Z,78.08
2018-03-07T18:43:41.914Z,78.27
2018-03-07T18:46:10.394Z,77.78
2018-03-07T18:48:39.082Z,77.59
2018-03-07T18:51:07.454Z,77.70
2018-03-07T18:53:35.903Z,78.00
2018-03-07T18:56:05.121Z,79.04
2018-03-07T18:58:34.273Z,79.61
2018-03-07T19:01:02.672Z,80.06
2018-03-07T19:03:31.081Z,80.74
2018-03-07T19:06:00.237Z,81.95
2018-03-07T19:08:28.740Z,82.00
2018-03-07T19:10:58.835Z,83.36
2018-03-07T19:13:27.260Z,83.28
2018-03-07T19:15:56.590Z,83.76
2018-03-07T19:18:24.972Z,83.84
2018-03-07T19:20:53.536Z,84.56
2018-03-07T19:23:22.716Z,83.91
2018-03-07T19:25:51.297Z,83.92
2018-03-07T19:28:20.773Z,83.87
2018-03-07T19:30:49.383Z,84.62
2018-03-07T19:33:18.469Z,84.45
2018-03-07T19:35:47.342Z,84.91
2018-03-07T19:38:15.751Z,84.88
2018-03-07T19:40:44.543Z,84.77
2018-03-07T19:43:13.269Z,84.34
2018-03-07T19:45:41.676Z,84.66
2018-03-07T19:48:10.835Z,84.33
2018-03-07T19:50:39.281Z,84.09
2018-03-07T19:53:07.806Z,84.76
2018-03-07T19:55:36.245Z,84.55
2018-03-07T19:58:04.639Z,84.49
2018-03-07T20:00:33.070Z,84.82
2018-03-07T20:03:01.505Z,84.29
2018-03-07T20:05:29.934Z,84.03
2018-03-07T20:07:58.495Z,83.62
2018-03-07T20:10:26.876Z,83.83
2018-03-07T20:12:55.395Z,82.93
2018-03-07T20:15:23.810Z,83.37
2018-03-07T20:17:52.981Z,83.24
2018-03-07T20:20:22.166Z,84.18
2018-03-07T20:22:51.313Z,84.57
2018-03-07T20:25:19.793Z,84.13
2018-03-07T20:27:48.433Z,84.48
2018-03-07T20:30:17.690Z,83.67
2018-03-07T20:32:46.119Z,84.13
2018-03-07T20:35:15.327Z,83.49
2018-03-07T20:37:44.724Z,83.73
2018-03-07T20:40:14.176Z,84.20
2018-03-07T20:42:42.601Z,83.37
2018-03-07T20:45:11.116Z,82.97
2018-03-07T20:47:39.633Z,82.35
2018-03-07T20:50:08.156Z,81.49
2018-03-07T20:52:37.390Z,81.15
2018-03-07T20:55:06.710Z,80.53
2018-03-07T20:57:35.116Z,80.75
2018-03-07T21:00:03.574Z,81.41
2018-03-07T21:02:32.023Z,81.29
2018-03-07T21:05:01.244Z,81.55
2018-03-07T21:07:29.859Z,81.86
2018-03-07T21:09:58.273Z,82.56
2018-03-07T21:12:26.715Z,81.51
2018-03-07T21:14:55.098Z,82.89
2018-03-07T21:17:23.483Z,83.14
2018-03-07T21:19:51.907Z,82.08
2018-03-07T21:22:21.060Z,82.48
2018-03-07T21:24:49.449Z,83.51
2018-03-07T21:27:17.905Z,83.24
2018-03-07T21:29:47.201Z,84.92
2018-03-07T21:32:15.699Z,84.32
2018-03-07T21:34:44.062Z,84.84
2018-03-07T21:37:12.485Z,84.42
2018-03-07T21:39:40.854Z,84.22
2018-03-07T21:42:09.307Z,85.28
2018-03-07T21:44:37.785Z,85.01
2018-03-07T21:47:06.336Z,85.20
2018-03-07T21:49:34.743Z,85.72
2018-03-07T21:52:03.925Z,86.66
2018-03-07T21:54:33.169Z,85.82
2018-03-07T21:57:01.603Z,86.25
2018-03-07T21:59:30.811Z,86.80
2018-03-07T22:01:59.228Z,86.44
2018-03-07T22:04:27.717Z,86.24
2018-03-07T22:06:56.106Z,86.35
2018-03-07T22:09:24.554Z,86.52
2018-03-07T22:11:53.080Z,85.80
2018-03-07T22:14:21.487Z,85.52
2018-03-07T22:16:49.961Z,85.39
2018-03-07T22:19:18.337Z,85.35
2018-03-07T22:21:46.733Z,85.79
2018-03-07T22:24:15.169Z,85.83
2018-03-07T22:26:43.663Z,85.81
2018-03-07T22:29:12.097Z,86.01
2018-03-07T22:31:41.331Z,85.70
2018-03-07T22:34:09.738Z,85.44
2018-03-07T22:36:38.292Z,85.63
2018-03-07T22:39:06.714Z,85.82
2018-03-07T22:41:35.139Z,85.37
2018-03-07T22:44:04.401Z,85.48
2018-03-07T22:46:32.769Z,85.14
2018-03-07T22:49:01.166Z,85.10
2018-03-07T22:51:29.588Z,85.04
2018-03-07T22:53:58.777Z,85.40
2018-03-07T22:56:27.952Z,85.41
2018-03-07T22:58:56.560Z,85.05
2018-03-07T23:01:25.704Z,85.03
2018-03-07T23:03:54.095Z,85.25
2018-03-07T23:06:22.520Z,85.60
2018-03-07T23:08:50.988Z,85.29
2018-03-07T23:11:19.375Z,85.37
2018-03-07T23:13:48.520Z,85.59
2018-03-07T23:16:17.025Z,85.80
2018-03-07T23:18:45.709Z,85.91
2018-03-07T23:21:14.158Z,85.54
2018-03-07T23:23:42.631Z,85.81
2018-03-07T23:26:11.763Z,85.64
2018-03-07T23:28:40.472Z,85.34
2018-03-07T23:31:09.577Z,85.37
2018-03-07T23:33:38.592Z,85.27
2018-03-07T23:36:07.082Z,85.18
2018-03-07T23:38:36.236Z,84.75
2018-03-07T23:41:04.903Z,84.69
2018-03-07T23:43:33.303Z,84.30
2018-03-07T23:46:01.704Z,84.67
2018-03-07T23:48:30.875Z,84.10
2018-03-07T23:50:59.242Z,83.77
2018-03-07T23:53:27.709Z,83.08
2018-03-07T23:55:56.855Z,83.41
2018-03-07T23:58:25.275Z,83.45
